Historyczne dane pomiarowe

Dodano dane terminowe – wersja testowa.

Dane z okresu 1951-2019

Wersja bazy: 1.34 [2019-03-16, lista zmian], aktualizacja planowana na 2019-04-15

Dane meteo z obszaru Polski uzyskane na podstawie danych udostępnionych przez Instytut Meteorologii i Gospodarki Wodnej – Państwowy Instytut Badawczy.

 

Wybierz Datę:    

       

TemperaturaWilgotnośćWiatrCiśnienieOpadyŚniegCzas trwania zjawisk
 Stacja t tx tn tng RH VA  wxwx mslp ppp RRR   cm mm wxwxwxwxwxwxwx
1956-11-09 -3.4 -0.1 -6.6- 77.5- 3.0 2.0---- 0.0------------
1956-11-08 -1.4 1.9 -7.0- 81.0- 3.7 1.0---- 0.0------------
1956-11-07 0.6 2.9 -0.8- 83.5- 6.7 4.7---- 0.0------------
1956-11-06 1.9 4.2 -0.3- 78.0- 8.0 6.0---- 0.1------------
1956-11-05 4.0 6.4 -2.5- 84.8- 6.0 4.7---- 0.8------------
1956-11-04 -0.2 3.9 -6.0- 87.8- 1.3 3.0---- 0.0------------
1956-11-03 -2.3 4.0 -7.9- 79.0- 1.3 1.0---- 0.0------------
1956-11-02 -1.9 2.4 -5.4- 88.3- 5.3 2.3---- 0.0------------
1956-11-01 -1.7 3.4 -9.6- 77.0- 2.3 2.7---- 0.4------------
1956-10-31 -6.9 -0.6 -9.0- 70.5- 1.3 4.0---- 0.0------------
1956-10-30 0.9 4.5 -1.3- 88.3- 8.0 7.0---- 0.0------------
1956-10-29 2.5 10.5 -0.9- 84.0- 4.3 2.7---- 0.0------------
1956-10-28 9.9 10.4 8.0- 97.0- 8.0 5.0---- 19.4------------
1956-10-27 9.4 10.9 6.1- 95.3- 8.0 6.0---- 2.8------------
1956-10-26 7.3 9.7 5.4- 95.8- 8.0 3.7---- 2.4------------
1956-10-25 10.6 16.9 5.6- 80.8- 3.0 4.3---- 0.0------------
1956-10-24 11.3 16.3 2.7- 80.5- 4.3 4.7---- 0.0------------
1956-10-23 7.2 11.0 2.8- 88.3- 5.3 2.0---- 0.0------------
1956-10-22 10.9 14.4 8.5- 89.5- 5.3 3.3---- 0.0------------
1956-10-21 12.1 16.7 8.7- 83.3- 3.7 0.7---- 0.0------------
1956-10-20 8.9 12.9 2.0- 90.0- 7.3 1.3---- 0.1------------
1956-10-19 9.6 14.0 6.6- 97.3- 7.3 2.7---- 0.6------------
1956-10-18 10.5 12.4 4.2- 91.8- 8.0 3.7---- 0.5------------
1956-10-17 6.8 13.4 -1.4- 74.5- 0.0 2.3---- 0.0------------
1956-10-16 3.2 12.5 -2.6- 81.0- 1.3 0.3---- 0.0------------
1956-10-15 3.4 10.9 0.0- 83.5- 2.7 1.7---- 0.0------------
1956-10-14 6.8 11.7 3.1- 70.5- 2.0 5.0---- 0.0------------
1956-10-13 10.4 11.9 7.1- 74.8- 8.0 7.3---- 1.7------------
1956-10-12 9.2 12.4 7.3- 81.8- 7.0 5.3---- 0.0------------
1956-10-11 8.0 11.3 -0.1- 76.8- 4.0 3.0---- 0.0------------
1956-10-10 2.2 8.9 -2.0- 84.8- 2.3 1.0---- 0.0------------
1956-10-09 6.6 7.9 1.3- 92.8- 8.0 4.3---- 1.4------------
1956-10-08 3.8 8.3 0.1- 85.0- 3.0 2.7---- 0.0------------
1956-10-07 5.6 8.9 3.9- 81.5- 4.3 8.0---- 0.0------------
1956-10-06 5.6 7.2 4.0- 91.5- 8.0 4.7---- 34.9------------
1956-10-05 8.8 14.4 6.2- 87.0- 6.0 3.0---- 0.0------------
1956-10-04 9.8 11.6 4.5- 97.0- 8.0 1.0---- 1.5------------
1956-10-03 12.6 18.4 8.3- 85.0- 4.3 3.3---- 0.0------------
1956-10-02 17.2 25.1 8.4- 74.5- 1.3 4.0---- 0.0------------
1956-10-01 15.6 24.3 4.5- 82.5- 1.3 2.3---- 0.0------------
1956-09-30 11.2 18.2 8.0- 80.5- 4.0 2.0---- 0.0------------
1956-09-29 16.0 19.4 13.1- 81.3- 7.0 3.7---- 0.0------------
1956-09-28 14.5 18.2 11.6- 77.8- 5.7 4.0---- 0.0------------
1956-09-27 16.0 22.5 10.7- 64.8- 1.7 3.0---- 0.0------------
1956-09-26 15.4 22.7 5.5- 60.5- 0.0 2.7---- 0.0------------
1956-09-25 12.4 21.5 2.1- 71.8- 0.0 1.7---- 0.0------------
1956-09-24 9.6 15.5 4.5- 55.3- 0.0 5.7---- 0.0------------
1956-09-23 11.7 17.5 8.1- 75.3- 0.3 5.7---- 0.0------------
1956-09-22 12.4 19.0 4.0- 75.5- 0.0 2.7---- 0.0------------
1956-09-21 9.4 18.9 1.0- 81.8- 0.0 0.0---- 0.0------------
1956-09-20 7.7 16.4 2.2- 79.8- 2.0 2.0---- 0.0------------
1956-09-19 7.2 16.5 0.3- 84.5- 1.0 0.7---- 0.0------------
1956-09-18 7.2 14.1 3.0- 88.0- 2.0 2.3---- 0.0------------
1956-09-17 8.4 11.7 6.8- 94.5- 5.3 4.3---- 1.8------------
1956-09-16 10.2 13.4 6.0- 82.3- 5.7 4.7---- 0.0------------
1956-09-15 9.6 14.8 4.0- 91.5- 6.7 2.3---- 0.0------------
1956-09-14 8.2 14.2 4.6- 92.5- 4.0 2.0---- 0.0------------
1956-09-13 9.4 12.9 7.5- 89.0- 6.7 3.7---- 1.3------------
1956-09-12 11.3 15.4 8.0- 89.0- 4.7 4.0---- 9.2------------
1956-09-11 13.0 16.4 10.9- 99.3- 4.7 1.7---- 9.2------------
3130.3 ms

 

Źródłem pochodzenia danych jest Instytut Meteorologii i Gospodarki Wodnej – Państwowy Instytut Badawczy. Dane Instytutu Meteorologii i Gospodarki Wodnej – Państwowego Instytutu Badawczego zostały przetworzone.

Dane źródłowe można odnaleźć na stronie https://dane.imgw.pl